sensor_id;sensor_type;location;lat;lon;timestamp;P1;durP1;ratioP1;P2;durP2;ratioP2
51838;SDS011;37886;53.174;6.368;2022-11-15T00:00:32;45.30;;;29.00;;
51838;SDS011;37886;53.174;6.368;2022-11-15T00:02:58;38.47;;;26.88;;
51838;SDS011;37886;53.174;6.368;2022-11-15T00:05:24;41.53;;;28.38;;
51838;SDS011;37886;53.174;6.368;2022-11-15T00:07:50;40.08;;;28.17;;
51838;SDS011;37886;53.174;6.368;2022-11-15T00:10:15;44.92;;;28.30;;
51838;SDS011;37886;53.174;6.368;2022-11-15T00:12:41;39.60;;;27.05;;
51838;SDS011;37886;53.174;6.368;2022-11-15T00:15:07;43.60;;;27.83;;
51838;SDS011;37886;53.174;6.368;2022-11-15T00:17:33;47.00;;;30.27;;
51838;SDS011;37886;53.174;6.368;2022-11-15T00:19:58;40.35;;;27.15;;
51838;SDS011;37886;53.174;6.368;2022-11-15T00:22:24;45.95;;;28.48;;
51838;SDS011;37886;53.174;6.368;2022-11-15T00:24:55;43.55;;;30.02;;
51838;SDS011;37886;53.174;6.368;2022-11-15T00:27:21;45.97;;;29.13;;
51838;SDS011;37886;53.174;6.368;2022-11-15T00:29:47;44.80;;;29.85;;
51838;SDS011;37886;53.174;6.368;2022-11-15T00:32:12;49.70;;;31.38;;
51838;SDS011;37886;53.174;6.368;2022-11-15T00:34:38;46.28;;;29.77;;
51838;SDS011;37886;53.174;6.368;2022-11-15T00:37:03;48.33;;;29.65;;
51838;SDS011;37886;53.174;6.368;2022-11-15T00:39:30;45.55;;;30.17;;
51838;SDS011;37886;53.174;6.368;2022-11-15T00:41:56;47.35;;;30.08;;
51838;SDS011;37886;53.174;6.368;2022-11-15T00:44:22;46.15;;;31.38;;
51838;SDS011;37886;53.174;6.368;2022-11-15T00:46:47;44.38;;;27.85;;
51838;SDS011;37886;53.174;6.368;2022-11-15T00:49:13;41.78;;;28.67;;
51838;SDS011;37886;53.174;6.368;2022-11-15T00:51:39;42.72;;;25.88;;
51838;SDS011;37886;53.174;6.368;2022-11-15T00:54:04;41.65;;;29.30;;
51838;SDS011;37886;53.174;6.368;2022-11-15T00:56:30;38.03;;;26.67;;
51838;SDS011;37886;53.174;6.368;2022-11-15T00:58:56;42.97;;;28.20;;
51838;SDS011;37886;53.174;6.368;2022-11-15T01:01:21;40.95;;;28.38;;
51838;SDS011;37886;53.174;6.368;2022-11-15T01:03:47;40.22;;;27.52;;
51838;SDS011;37886;53.174;6.368;2022-11-15T01:06:13;40.38;;;27.55;;
51838;SDS011;37886;53.174;6.368;2022-11-15T01:08:39;40.28;;;27.63;;
51838;SDS011;37886;53.174;6.368;2022-11-15T01:11:10;41.17;;;29.35;;
51838;SDS011;37886;53.174;6.368;2022-11-15T01:13:37;41.67;;;28.55;;
51838;SDS011;37886;53.174;6.368;2022-11-15T01:16:14;39.42;;;26.63;;
51838;SDS011;37886;53.174;6.368;2022-11-15T01:18:42;38.65;;;26.90;;
51838;SDS011;37886;53.174;6.368;2022-11-15T01:21:12;36.80;;;25.60;;
51838;SDS011;37886;53.174;6.368;2022-11-15T01:23:39;36.67;;;26.17;;
51838;SDS011;37886;53.174;6.368;2022-11-15T01:26:06;35.20;;;25.98;;
51838;SDS011;37886;53.174;6.368;2022-11-15T01:28:35;40.70;;;28.30;;
51838;SDS011;37886;53.174;6.368;2022-11-15T01:31:02;42.65;;;31.05;;
51838;SDS011;37886;53.174;6.368;2022-11-15T01:33:29;45.40;;;32.92;;
51838;SDS011;37886;53.174;6.368;2022-11-15T01:35:56;41.17;;;31.75;;
51838;SDS011;37886;53.174;6.368;2022-11-15T01:38:22;49.03;;;32.80;;
51838;SDS011;37886;53.174;6.368;2022-11-15T01:40:48;39.65;;;29.20;;
51838;SDS011;37886;53.174;6.368;2022-11-15T01:45:56;41.10;;;28.38;;
51838;SDS011;37886;53.174;6.368;2022-11-15T01:48:49;45.42;;;32.58;;
51838;SDS011;37886;53.174;6.368;2022-11-15T01:51:16;52.92;;;32.72;;
51838;SDS011;37886;53.174;6.368;2022-11-15T01:53:45;45.10;;;30.85;;
51838;SDS011;37886;53.174;6.368;2022-11-15T01:56:17;42.00;;;30.70;;
51838;SDS011;37886;53.174;6.368;2022-11-15T01:58:45;46.67;;;29.92;;
51838;SDS011;37886;53.174;6.368;2022-11-15T02:01:14;44.80;;;31.17;;
51838;SDS011;37886;53.174;6.368;2022-11-15T02:03:46;45.78;;;31.23;;
51838;SDS011;37886;53.174;6.368;2022-11-15T02:06:17;50.28;;;30.58;;
51838;SDS011;37886;53.174;6.368;2022-11-15T02:08:44;44.88;;;31.50;;
51838;SDS011;37886;53.174;6.368;2022-11-15T02:11:10;51.70;;;36.20;;
51838;SDS011;37886;53.174;6.368;2022-11-15T02:13:35;41.95;;;29.30;;
51838;SDS011;37886;53.174;6.368;2022-11-15T02:18:40;43.83;;;28.67;;
51838;SDS011;37886;53.174;6.368;2022-11-15T02:26:57;43.97;;;30.25;;
51838;SDS011;37886;53.174;6.368;2022-11-15T02:32:20;40.17;;;26.13;;
51838;SDS011;37886;53.174;6.368;2022-11-15T02:42:36;46.08;;;29.63;;
51838;SDS011;37886;53.174;6.368;2022-11-15T02:45:30;49.88;;;28.27;;
51838;SDS011;37886;53.174;6.368;2022-11-15T02:48:00;45.58;;;30.17;;
51838;SDS011;37886;53.174;6.368;2022-11-15T02:50:29;48.50;;;30.77;;
51838;SDS011;37886;53.174;6.368;2022-11-15T02:52:57;47.22;;;29.23;;
51838;SDS011;37886;53.174;6.368;2022-11-15T02:58:14;51.50;;;29.27;;
51838;SDS011;37886;53.174;6.368;2022-11-15T03:08:40;52.60;;;31.15;;
51838;SDS011;37886;53.174;6.368;2022-11-15T03:11:27;50.42;;;29.45;;
51838;SDS011;37886;53.174;6.368;2022-11-15T03:13:58;49.70;;;31.52;;
51838;SDS011;37886;53.174;6.368;2022-11-15T03:16:27;49.55;;;29.88;;
51838;SDS011;37886;53.174;6.368;2022-11-15T03:19:04;50.80;;;31.55;;
51838;SDS011;37886;53.174;6.368;2022-11-15T03:21:50;51.15;;;30.20;;
51838;SDS011;37886;53.174;6.368;2022-11-15T03:24:18;57.50;;;30.35;;
51838;SDS011;37886;53.174;6.368;2022-11-15T03:26:45;53.33;;;33.30;;
51838;SDS011;37886;53.174;6.368;2022-11-15T03:29:16;50.25;;;31.80;;
51838;SDS011;37886;53.174;6.368;2022-11-15T03:31:47;57.53;;;30.35;;
51838;SDS011;37886;53.174;6.368;2022-11-15T03:34:21;49.78;;;29.17;;
51838;SDS011;37886;53.174;6.368;2022-11-15T03:36:57;58.95;;;32.25;;
51838;SDS011;37886;53.174;6.368;2022-11-15T03:39:23;61.15;;;31.60;;
51838;SDS011;37886;53.174;6.368;2022-11-15T03:41:59;55.65;;;31.17;;
51838;SDS011;37886;53.174;6.368;2022-11-15T03:44:51;57.00;;;30.60;;
51838;SDS011;37886;53.174;6.368;2022-11-15T03:47:22;59.55;;;31.70;;
51838;SDS011;37886;53.174;6.368;2022-11-15T03:50:07;62.22;;;32.60;;
51838;SDS011;37886;53.174;6.368;2022-11-15T03:52:38;66.30;;;33.75;;
51838;SDS011;37886;53.174;6.368;2022-11-15T03:55:06;58.88;;;31.17;;
51838;SDS011;37886;53.174;6.368;2022-11-15T03:57:35;66.55;;;32.33;;
51838;SDS011;37886;53.174;6.368;2022-11-15T04:00:01;66.78;;;33.05;;
51838;SDS011;37886;53.174;6.368;2022-11-15T04:02:28;57.88;;;30.23;;
51838;SDS011;37886;53.174;6.368;2022-11-15T04:04:53;67.38;;;32.85;;
51838;SDS011;37886;53.174;6.368;2022-11-15T04:07:19;67.90;;;33.80;;
51838;SDS011;37886;53.174;6.368;2022-11-15T04:09:45;66.93;;;33.38;;
51838;SDS011;37886;53.174;6.368;2022-11-15T04:12:29;73.95;;;34.55;;
51838;SDS011;37886;53.174;6.368;2022-11-15T04:14:59;62.15;;;32.05;;
51838;SDS011;37886;53.174;6.368;2022-11-15T04:17:52;68.40;;;32.72;;
51838;SDS011;37886;53.174;6.368;2022-11-15T04:20:20;66.07;;;32.22;;
51838;SDS011;37886;53.174;6.368;2022-11-15T04:23:07;63.28;;;32.15;;
51838;SDS011;37886;53.174;6.368;2022-11-15T04:26:10;62.47;;;30.70;;
51838;SDS011;37886;53.174;6.368;2022-11-15T04:28:37;63.40;;;31.23;;
51838;SDS011;37886;53.174;6.368;2022-11-15T04:31:23;67.30;;;31.83;;
51838;SDS011;37886;53.174;6.368;2022-11-15T04:33:49;65.03;;;31.25;;
51838;SDS011;37886;53.174;6.368;2022-11-15T04:36:14;69.43;;;32.22;;
51838;SDS011;37886;53.174;6.368;2022-11-15T04:38:58;65.38;;;30.08;;
51838;SDS011;37886;53.174;6.368;2022-11-15T04:41:24;63.92;;;33.47;;
51838;SDS011;37886;53.174;6.368;2022-11-15T04:43:50;61.35;;;29.92;;
51838;SDS011;37886;53.174;6.368;2022-11-15T04:46:16;69.65;;;33.88;;
51838;SDS011;37886;53.174;6.368;2022-11-15T04:48:42;71.07;;;32.90;;
51838;SDS011;37886;53.174;6.368;2022-11-15T04:51:07;62.80;;;29.73;;
51838;SDS011;37886;53.174;6.368;2022-11-15T04:53:33;64.32;;;30.80;;
51838;SDS011;37886;53.174;6.368;2022-11-15T04:55:59;71.03;;;32.65;;
51838;SDS011;37886;53.174;6.368;2022-11-15T04:58:24;66.82;;;32.38;;
51838;SDS011;37886;53.174;6.368;2022-11-15T05:00:50;63.70;;;33.20;;
51838;SDS011;37886;53.174;6.368;2022-11-15T05:03:16;68.13;;;30.75;;
51838;SDS011;37886;53.174;6.368;2022-11-15T05:06:00;71.43;;;33.72;;
51838;SDS011;37886;53.174;6.368;2022-11-15T05:08:25;74.63;;;34.28;;
51838;SDS011;37886;53.174;6.368;2022-11-15T05:10:51;71.93;;;33.45;;
51838;SDS011;37886;53.174;6.368;2022-11-15T05:13:17;77.13;;;33.08;;
51838;SDS011;37886;53.174;6.368;2022-11-15T05:15:43;84.47;;;38.38;;
51838;SDS011;37886;53.174;6.368;2022-11-15T05:18:08;70.40;;;30.58;;
51838;SDS011;37886;53.174;6.368;2022-11-15T05:20:34;82.53;;;33.95;;
51838;SDS011;37886;53.174;6.368;2022-11-15T05:23:00;88.65;;;37.53;;
51838;SDS011;37886;53.174;6.368;2022-11-15T05:25:26;79.85;;;33.55;;
51838;SDS011;37886;53.174;6.368;2022-11-15T05:27:52;82.88;;;39.17;;
51838;SDS011;37886;53.174;6.368;2022-11-15T05:30:18;103.63;;;42.55;;
51838;SDS011;37886;53.174;6.368;2022-11-15T05:32:43;95.43;;;39.42;;
51838;SDS011;37886;53.174;6.368;2022-11-15T05:35:12;107.75;;;41.90;;
51838;SDS011;37886;53.174;6.368;2022-11-15T05:37:49;105.38;;;40.88;;
51838;SDS011;37886;53.174;6.368;2022-11-15T05:40:15;97.32;;;40.42;;
51838;SDS011;37886;53.174;6.368;2022-11-15T05:42:41;98.22;;;40.38;;
51838;SDS011;37886;53.174;6.368;2022-11-15T05:45:06;104.03;;;43.05;;
51838;SDS011;37886;53.174;6.368;2022-11-15T05:47:34;99.85;;;42.70;;
51838;SDS011;37886;53.174;6.368;2022-11-15T05:50:02;125.75;;;47.03;;
51838;SDS011;37886;53.174;6.368;2022-11-15T05:52:29;129.27;;;49.13;;
51838;SDS011;37886;53.174;6.368;2022-11-15T05:54:59;109.15;;;45.47;;
51838;SDS011;37886;53.174;6.368;2022-11-15T05:57:25;112.40;;;43.45;;
51838;SDS011;37886;53.174;6.368;2022-11-15T05:59:51;124.07;;;47.08;;
51838;SDS011;37886;53.174;6.368;2022-11-15T06:02:16;117.10;;;47.53;;
51838;SDS011;37886;53.174;6.368;2022-11-15T06:04:42;131.25;;;47.80;;
51838;SDS011;37886;53.174;6.368;2022-11-15T06:07:08;123.88;;;48.03;;
51838;SDS011;37886;53.174;6.368;2022-11-15T06:09:33;120.57;;;45.15;;
51838;SDS011;37886;53.174;6.368;2022-11-15T06:11:59;123.65;;;44.15;;
51838;SDS011;37886;53.174;6.368;2022-11-15T06:14:27;143.18;;;50.63;;
51838;SDS011;37886;53.174;6.368;2022-11-15T06:16:53;141.82;;;50.97;;
51838;SDS011;37886;53.174;6.368;2022-11-15T06:19:18;155.43;;;53.38;;
51838;SDS011;37886;53.174;6.368;2022-11-15T06:21:44;160.63;;;54.20;;
51838;SDS011;37886;53.174;6.368;2022-11-15T06:24:10;158.00;;;54.92;;
51838;SDS011;37886;53.174;6.368;2022-11-15T06:26:35;150.23;;;54.22;;
51838;SDS011;37886;53.174;6.368;2022-11-15T06:29:02;145.50;;;52.83;;
51838;SDS011;37886;53.174;6.368;2022-11-15T06:31:29;140.95;;;50.75;;
51838;SDS011;37886;53.174;6.368;2022-11-15T06:33:55;164.20;;;53.53;;
51838;SDS011;37886;53.174;6.368;2022-11-15T06:36:20;130.88;;;49.13;;
51838;SDS011;37886;53.174;6.368;2022-11-15T06:38:49;168.70;;;56.15;;
51838;SDS011;37886;53.174;6.368;2022-11-15T06:41:15;164.73;;;52.45;;
51838;SDS011;37886;53.174;6.368;2022-11-15T06:43:42;155.88;;;51.10;;
51838;SDS011;37886;53.174;6.368;2022-11-15T06:46:08;138.60;;;53.45;;
51838;SDS011;37886;53.174;6.368;2022-11-15T06:48:34;128.30;;;49.35;;
51838;SDS011;37886;53.174;6.368;2022-11-15T06:51:01;156.15;;;55.65;;
51838;SDS011;37886;53.174;6.368;2022-11-15T06:53:29;174.10;;;58.20;;
51838;SDS011;37886;53.174;6.368;2022-11-15T06:55:59;177.73;;;61.33;;
51838;SDS011;37886;53.174;6.368;2022-11-15T06:58:26;181.07;;;59.03;;
51838;SDS011;37886;53.174;6.368;2022-11-15T07:00:52;153.52;;;55.05;;
51838;SDS011;37886;53.174;6.368;2022-11-15T07:03:18;172.65;;;60.88;;
51838;SDS011;37886;53.174;6.368;2022-11-15T07:05:50;156.40;;;55.05;;
51838;SDS011;37886;53.174;6.368;2022-11-15T07:08:18;142.15;;;52.38;;
51838;SDS011;37886;53.174;6.368;2022-11-15T07:10:44;150.35;;;57.72;;
51838;SDS011;37886;53.174;6.368;2022-11-15T07:13:10;148.57;;;54.53;;
51838;SDS011;37886;53.174;6.368;2022-11-15T07:15:35;148.77;;;52.70;;
51838;SDS011;37886;53.174;6.368;2022-11-15T07:18:01;148.20;;;55.60;;
51838;SDS011;37886;53.174;6.368;2022-11-15T07:20:27;148.80;;;52.05;;
51838;SDS011;37886;53.174;6.368;2022-11-15T07:22:59;121.88;;;50.40;;
51838;SDS011;37886;53.174;6.368;2022-11-15T07:25:29;137.80;;;51.45;;
51838;SDS011;37886;53.174;6.368;2022-11-15T07:27:55;148.38;;;55.53;;
51838;SDS011;37886;53.174;6.368;2022-11-15T07:30:21;133.55;;;54.53;;
51838;SDS011;37886;53.174;6.368;2022-11-15T07:32:47;127.53;;;51.75;;
51838;SDS011;37886;53.174;6.368;2022-11-15T07:35:20;131.63;;;52.20;;
51838;SDS011;37886;53.174;6.368;2022-11-15T07:37:53;135.68;;;54.65;;
51838;SDS011;37886;53.174;6.368;2022-11-15T07:40:29;122.63;;;51.10;;
51838;SDS011;37886;53.174;6.368;2022-11-15T07:43:00;121.78;;;50.70;;
51838;SDS011;37886;53.174;6.368;2022-11-15T07:45:27;115.03;;;51.45;;
51838;SDS011;37886;53.174;6.368;2022-11-15T07:47:53;117.25;;;49.58;;
51838;SDS011;37886;53.174;6.368;2022-11-15T07:50:20;118.55;;;50.00;;
51838;SDS011;37886;53.174;6.368;2022-11-15T07:52:47;116.13;;;50.78;;
51838;SDS011;37886;53.174;6.368;2022-11-15T07:55:13;105.80;;;47.58;;
51838;SDS011;37886;53.174;6.368;2022-11-15T07:57:38;105.60;;;47.38;;
51838;SDS011;37886;53.174;6.368;2022-11-15T08:00:04;110.13;;;48.55;;
51838;SDS011;37886;53.174;6.368;2022-11-15T08:02:31;114.50;;;50.67;;
51838;SDS011;37886;53.174;6.368;2022-11-15T08:04:56;98.18;;;47.38;;
51838;SDS011;37886;53.174;6.368;2022-11-15T08:07:22;93.38;;;45.13;;
51838;SDS011;37886;53.174;6.368;2022-11-15T08:09:48;91.70;;;46.42;;
51838;SDS011;37886;53.174;6.368;2022-11-15T08:12:14;77.82;;;41.03;;
51838;SDS011;37886;53.174;6.368;2022-11-15T08:14:40;93.85;;;43.28;;
51838;SDS011;37886;53.174;6.368;2022-11-15T08:17:05;87.03;;;44.15;;
51838;SDS011;37886;53.174;6.368;2022-11-15T08:19:31;82.38;;;43.47;;
51838;SDS011;37886;53.174;6.368;2022-11-15T08:21:57;80.55;;;41.38;;
51838;SDS011;37886;53.174;6.368;2022-11-15T08:24:22;86.90;;;44.58;;
51838;SDS011;37886;53.174;6.368;2022-11-15T08:26:48;77.88;;;40.22;;
51838;SDS011;37886;53.174;6.368;2022-11-15T08:29:14;74.13;;;41.08;;
51838;SDS011;37886;53.174;6.368;2022-11-15T08:31:40;69.22;;;40.33;;
51838;SDS011;37886;53.174;6.368;2022-11-15T08:34:05;75.90;;;41.72;;
51838;SDS011;37886;53.174;6.368;2022-11-15T08:36:31;70.45;;;40.60;;
51838;SDS011;37886;53.174;6.368;2022-11-15T08:38:57;62.83;;;37.70;;
51838;SDS011;37886;53.174;6.368;2022-11-15T08:41:36;64.00;;;38.13;;
51838;SDS011;37886;53.174;6.368;2022-11-15T08:44:02;70.88;;;38.25;;
51838;SDS011;37886;53.174;6.368;2022-11-15T08:46:28;60.03;;;36.05;;
51838;SDS011;37886;53.174;6.368;2022-11-15T08:48:53;63.20;;;36.40;;
51838;SDS011;37886;53.174;6.368;2022-11-15T08:51:19;61.47;;;37.33;;
51838;SDS011;37886;53.174;6.368;2022-11-15T08:53:45;57.22;;;36.40;;
51838;SDS011;37886;53.174;6.368;2022-11-15T08:56:12;53.40;;;34.22;;
51838;SDS011;37886;53.174;6.368;2022-11-15T08:58:39;58.00;;;35.17;;
51838;SDS011;37886;53.174;6.368;2022-11-15T09:01:05;54.90;;;33.65;;
51838;SDS011;37886;53.174;6.368;2022-11-15T09:03:31;56.17;;;33.63;;
51838;SDS011;37886;53.174;6.368;2022-11-15T09:05:57;56.45;;;34.90;;
51838;SDS011;37886;53.174;6.368;2022-11-15T09:08:25;51.35;;;32.90;;
51838;SDS011;37886;53.174;6.368;2022-11-15T09:10:54;57.05;;;33.83;;
51838;SDS011;37886;53.174;6.368;2022-11-15T09:13:19;44.83;;;29.73;;
51838;SDS011;37886;53.174;6.368;2022-11-15T09:15:45;49.40;;;32.30;;
51838;SDS011;37886;53.174;6.368;2022-11-15T09:18:11;52.05;;;32.63;;
51838;SDS011;37886;53.174;6.368;2022-11-15T09:20:37;50.88;;;31.15;;
51838;SDS011;37886;53.174;6.368;2022-11-15T09:23:03;44.88;;;32.05;;
51838;SDS011;37886;53.174;6.368;2022-11-15T09:25:29;48.55;;;30.92;;
51838;SDS011;37886;53.174;6.368;2022-11-15T09:27:56;47.35;;;28.35;;
51838;SDS011;37886;53.174;6.368;2022-11-15T09:30:22;45.15;;;29.77;;
51838;SDS011;37886;53.174;6.368;2022-11-15T09:32:48;48.75;;;31.13;;
51838;SDS011;37886;53.174;6.368;2022-11-15T09:35:14;41.47;;;28.63;;
51838;SDS011;37886;53.174;6.368;2022-11-15T09:37:40;48.13;;;30.38;;
51838;SDS011;37886;53.174;6.368;2022-11-15T09:40:08;44.15;;;29.63;;
51838;SDS011;37886;53.174;6.368;2022-11-15T09:45:31;50.17;;;30.48;;
51838;SDS011;37886;53.174;6.368;2022-11-15T09:51:12;38.53;;;27.30;;
51838;SDS011;37886;53.174;6.368;2022-11-15T09:56:37;42.22;;;27.27;;
51838;SDS011;37886;53.174;6.368;2022-11-15T10:04:25;46.88;;;27.15;;
51838;SDS011;37886;53.174;6.368;2022-11-15T10:07:02;32.97;;;24.13;;
51838;SDS011;37886;53.174;6.368;2022-11-15T10:09:41;37.40;;;24.80;;
51838;SDS011;37886;53.174;6.368;2022-11-15T10:12:09;40.42;;;27.02;;
51838;SDS011;37886;53.174;6.368;2022-11-15T10:14:37;37.65;;;24.42;;
51838;SDS011;37886;53.174;6.368;2022-11-15T10:19:58;36.03;;;23.50;;
51838;SDS011;37886;53.174;6.368;2022-11-15T10:22:35;37.28;;;23.83;;
51838;SDS011;37886;53.174;6.368;2022-11-15T10:28:33;35.63;;;23.40;;
51838;SDS011;37886;53.174;6.368;2022-11-15T10:30:37;33.58;;;22.88;;
51838;SDS011;37886;53.174;6.368;2022-11-15T10:35:39;34.15;;;21.60;;
51838;SDS011;37886;53.174;6.368;2022-11-15T10:38:07;29.48;;;21.15;;
51838;SDS011;37886;53.174;6.368;2022-11-15T10:40:35;28.13;;;20.85;;
51838;SDS011;37886;53.174;6.368;2022-11-15T10:45:41;29.13;;;20.10;;
51838;SDS011;37886;53.174;6.368;2022-11-15T10:50:45;27.98;;;19.40;;
51838;SDS011;37886;53.174;6.368;2022-11-15T10:55:41;31.65;;;19.60;;
51838;SDS011;37886;53.174;6.368;2022-11-15T10:58:20;27.55;;;19.58;;
51838;SDS011;37886;53.174;6.368;2022-11-15T11:00:55;27.00;;;18.10;;
51838;SDS011;37886;53.174;6.368;2022-11-15T11:03:28;23.33;;;17.27;;
51838;SDS011;37886;53.174;6.368;2022-11-15T11:06:15;27.08;;;18.23;;
51838;SDS011;37886;53.174;6.368;2022-11-15T11:11:47;24.88;;;16.70;;
51838;SDS011;37886;53.174;6.368;2022-11-15T11:20:02;23.05;;;15.45;;
51838;SDS011;37886;53.174;6.368;2022-11-15T11:25:25;22.42;;;14.50;;
51838;SDS011;37886;53.174;6.368;2022-11-15T11:33:16;21.05;;;13.77;;
51838;SDS011;37886;53.174;6.368;2022-11-15T11:41:24;18.48;;;12.55;;
51838;SDS011;37886;53.174;6.368;2022-11-15T11:52:18;13.85;;;8.88;;
51838;SDS011;37886;53.174;6.368;2022-11-15T11:55:01;16.63;;;8.90;;
51838;SDS011;37886;53.174;6.368;2022-11-15T12:00:41;10.43;;;6.10;;
51838;SDS011;37886;53.174;6.368;2022-11-15T12:03:19;12.38;;;6.03;;
51838;SDS011;37886;53.174;6.368;2022-11-15T12:05:54;11.80;;;4.72;;
51838;SDS011;37886;53.174;6.368;2022-11-15T12:14:40;11.90;;;4.47;;
51838;SDS011;37886;53.174;6.368;2022-11-15T12:17:11;7.07;;;4.20;;
51838;SDS011;37886;53.174;6.368;2022-11-15T12:19:37;7.38;;;3.72;;
51838;SDS011;37886;53.174;6.368;2022-11-15T12:22:19;8.15;;;3.42;;
51838;SDS011;37886;53.174;6.368;2022-11-15T12:24:53;8.23;;;3.35;;
51838;SDS011;37886;53.174;6.368;2022-11-15T12:30:02;7.38;;;3.35;;
51838;SDS011;37886;53.174;6.368;2022-11-15T12:32:35;9.63;;;3.03;;
51838;SDS011;37886;53.174;6.368;2022-11-15T12:35:03;10.98;;;3.78;;
51838;SDS011;37886;53.174;6.368;2022-11-15T12:37:46;6.80;;;3.45;;
51838;SDS011;37886;53.174;6.368;2022-11-15T12:45:42;5.78;;;3.25;;
51838;SDS011;37886;53.174;6.368;2022-11-15T12:58:48;6.68;;;2.97;;
51838;SDS011;37886;53.174;6.368;2022-11-15T13:06:48;6.78;;;3.20;;
51838;SDS011;37886;53.174;6.368;2022-11-15T13:12:02;7.97;;;3.55;;
51838;SDS011;37886;53.174;6.368;2022-11-15T13:19:59;7.35;;;3.17;;
51838;SDS011;37886;53.174;6.368;2022-11-15T13:28:24;4.38;;;2.75;;
51838;SDS011;37886;53.174;6.368;2022-11-15T13:31:01;9.93;;;3.50;;
51838;SDS011;37886;53.174;6.368;2022-11-15T13:33:39;8.00;;;3.47;;
51838;SDS011;37886;53.174;6.368;2022-11-15T13:38:55;5.75;;;2.78;;
51838;SDS011;37886;53.174;6.368;2022-11-15T13:41:44;10.35;;;3.38;;
51838;SDS011;37886;53.174;6.368;2022-11-15T13:44:18;5.88;;;2.65;;
51838;SDS011;37886;53.174;6.368;2022-11-15T13:46:46;6.53;;;3.22;;
51838;SDS011;37886;53.174;6.368;2022-11-15T13:49:11;6.90;;;2.67;;
51838;SDS011;37886;53.174;6.368;2022-11-15T13:59:49;7.68;;;3.70;;
51838;SDS011;37886;53.174;6.368;2022-11-15T14:02:25;6.85;;;3.03;;
51838;SDS011;37886;53.174;6.368;2022-11-15T14:05:03;5.85;;;3.00;;
51838;SDS011;37886;53.174;6.368;2022-11-15T14:07:44;8.57;;;2.90;;
51838;SDS011;37886;53.174;6.368;2022-11-15T14:10:28;5.40;;;3.15;;
51838;SDS011;37886;53.174;6.368;2022-11-15T14:12:58;6.25;;;3.03;;
51838;SDS011;37886;53.174;6.368;2022-11-15T14:15:32;6.00;;;2.58;;
51838;SDS011;37886;53.174;6.368;2022-11-15T14:17:59;10.98;;;2.75;;
51838;SDS011;37886;53.174;6.368;2022-11-15T14:25:55;4.90;;;2.40;;
51838;SDS011;37886;53.174;6.368;2022-11-15T14:30:48;6.30;;;2.03;;
51838;SDS011;37886;53.174;6.368;2022-11-15T14:35:48;5.57;;;2.40;;
51838;SDS011;37886;53.174;6.368;2022-11-15T14:38:14;8.73;;;2.80;;
51838;SDS011;37886;53.174;6.368;2022-11-15T14:40:40;6.03;;;2.28;;
51838;SDS011;37886;53.174;6.368;2022-11-15T14:43:08;4.70;;;1.95;;
51838;SDS011;37886;53.174;6.368;2022-11-15T14:45:36;7.60;;;2.38;;
51838;SDS011;37886;53.174;6.368;2022-11-15T14:48:02;5.18;;;1.95;;
51838;SDS011;37886;53.174;6.368;2022-11-15T14:50:28;10.30;;;2.10;;
51838;SDS011;37886;53.174;6.368;2022-11-15T14:52:53;3.63;;;1.92;;
51838;SDS011;37886;53.174;6.368;2022-11-15T14:55:26;6.30;;;2.10;;
51838;SDS011;37886;53.174;6.368;2022-11-15T14:57:56;5.95;;;2.47;;
51838;SDS011;37886;53.174;6.368;2022-11-15T15:00:21;6.30;;;1.90;;
51838;SDS011;37886;53.174;6.368;2022-11-15T15:02:52;3.92;;;1.60;;
51838;SDS011;37886;53.174;6.368;2022-11-15T15:07:48;5.05;;;1.92;;
51838;SDS011;37886;53.174;6.368;2022-11-15T15:10:15;3.72;;;2.10;;
51838;SDS011;37886;53.174;6.368;2022-11-15T15:12:41;4.38;;;1.60;;
51838;SDS011;37886;53.174;6.368;2022-11-15T15:15:14;3.83;;;1.77;;
51838;SDS011;37886;53.174;6.368;2022-11-15T15:17:45;3.20;;;1.65;;
51838;SDS011;37886;53.174;6.368;2022-11-15T15:20:11;5.40;;;1.90;;
51838;SDS011;37886;53.174;6.368;2022-11-15T15:22:36;6.05;;;1.65;;
51838;SDS011;37886;53.174;6.368;2022-11-15T15:25:07;8.88;;;2.17;;
51838;SDS011;37886;53.174;6.368;2022-11-15T15:27:55;4.25;;;1.92;;
51838;SDS011;37886;53.174;6.368;2022-11-15T15:30:22;10.73;;;2.10;;
51838;SDS011;37886;53.174;6.368;2022-11-15T15:32:49;4.43;;;2.08;;
51838;SDS011;37886;53.174;6.368;2022-11-15T15:35:15;5.25;;;2.22;;
51838;SDS011;37886;53.174;6.368;2022-11-15T15:37:42;5.25;;;2.30;;
51838;SDS011;37886;53.174;6.368;2022-11-15T15:40:19;5.05;;;2.92;;
51838;SDS011;37886;53.174;6.368;2022-11-15T15:42:46;6.72;;;3.40;;
51838;SDS011;37886;53.174;6.368;2022-11-15T15:45:13;5.85;;;3.50;;
51838;SDS011;37886;53.174;6.368;2022-11-15T15:47:42;3.90;;;2.78;;
51838;SDS011;37886;53.174;6.368;2022-11-15T15:50:21;5.82;;;2.50;;
51838;SDS011;37886;53.174;6.368;2022-11-15T15:52:51;4.63;;;2.70;;
51838;SDS011;37886;53.174;6.368;2022-11-15T15:55:18;7.45;;;3.30;;
51838;SDS011;37886;53.174;6.368;2022-11-15T15:57:44;5.40;;;3.38;;
51838;SDS011;37886;53.174;6.368;2022-11-15T16:00:11;8.48;;;3.78;;
51838;SDS011;37886;53.174;6.368;2022-11-15T16:02:38;7.30;;;3.63;;
51838;SDS011;37886;53.174;6.368;2022-11-15T16:05:04;5.10;;;3.92;;
51838;SDS011;37886;53.174;6.368;2022-11-15T16:07:30;7.13;;;4.18;;
51838;SDS011;37886;53.174;6.368;2022-11-15T16:09:59;9.07;;;3.75;;
51838;SDS011;37886;53.174;6.368;2022-11-15T16:12:25;8.20;;;4.30;;
51838;SDS011;37886;53.174;6.368;2022-11-15T16:14:51;6.93;;;5.25;;
51838;SDS011;37886;53.174;6.368;2022-11-15T16:17:18;8.57;;;4.60;;
51838;SDS011;37886;53.174;6.368;2022-11-15T16:19:55;7.07;;;4.45;;
51838;SDS011;37886;53.174;6.368;2022-11-15T16:22:20;8.20;;;5.18;;
51838;SDS011;37886;53.174;6.368;2022-11-15T16:24:46;8.13;;;5.05;;
51838;SDS011;37886;53.174;6.368;2022-11-15T16:27:13;8.73;;;6.15;;
51838;SDS011;37886;53.174;6.368;2022-11-15T16:29:43;7.70;;;5.93;;
51838;SDS011;37886;53.174;6.368;2022-11-15T16:32:10;6.88;;;6.18;;
51838;SDS011;37886;53.174;6.368;2022-11-15T16:34:36;11.05;;;5.45;;
51838;SDS011;37886;53.174;6.368;2022-11-15T16:37:02;6.70;;;5.80;;
51838;SDS011;37886;53.174;6.368;2022-11-15T16:39:27;8.20;;;5.95;;
51838;SDS011;37886;53.174;6.368;2022-11-15T16:41:58;19.40;;;6.43;;
51838;SDS011;37886;53.174;6.368;2022-11-15T16:44:28;10.48;;;6.10;;
51838;SDS011;37886;53.174;6.368;2022-11-15T16:46:53;6.50;;;5.90;;
51838;SDS011;37886;53.174;6.368;2022-11-15T16:49:19;6.72;;;5.82;;
51838;SDS011;37886;53.174;6.368;2022-11-15T16:51:46;9.10;;;5.60;;
51838;SDS011;37886;53.174;6.368;2022-11-15T16:54:13;7.72;;;5.68;;
51838;SDS011;37886;53.174;6.368;2022-11-15T16:56:39;7.68;;;5.55;;
51838;SDS011;37886;53.174;6.368;2022-11-15T16:59:06;7.22;;;6.00;;
51838;SDS011;37886;53.174;6.368;2022-11-15T17:01:36;7.55;;;5.95;;
51838;SDS011;37886;53.174;6.368;2022-11-15T17:04:10;7.43;;;5.63;;
51838;SDS011;37886;53.174;6.368;2022-11-15T17:06:37;6.72;;;5.30;;
51838;SDS011;37886;53.174;6.368;2022-11-15T17:09:05;10.32;;;5.18;;
51838;SDS011;37886;53.174;6.368;2022-11-15T17:11:31;7.65;;;4.32;;
51838;SDS011;37886;53.174;6.368;2022-11-15T17:13:57;7.30;;;4.55;;
51838;SDS011;37886;53.174;6.368;2022-11-15T17:16:23;6.28;;;4.05;;
51838;SDS011;37886;53.174;6.368;2022-11-15T17:18:50;6.30;;;4.00;;
51838;SDS011;37886;53.174;6.368;2022-11-15T17:21:17;6.70;;;3.67;;